sensor_id;sensor_type;location;lat;lon;timestamp;P1;durP1;ratioP1;P2;durP2;ratioP2
5867;SDS011;2960;49.142;7.768;2023-09-07T00:01:58;14.07;;;6.60;;
5867;SDS011;2960;49.142;7.768;2023-09-07T00:04:25;15.00;;;6.37;;
5867;SDS011;2960;49.142;7.768;2023-09-07T00:06:52;12.67;;;5.57;;
5867;SDS011;2960;49.142;7.768;2023-09-07T00:09:20;12.60;;;5.73;;
5867;SDS011;2960;49.142;7.768;2023-09-07T00:11:50;14.60;;;6.17;;
5867;SDS011;2960;49.142;7.768;2023-09-07T00:14:17;13.20;;;6.33;;
5867;SDS011;2960;49.142;7.768;2023-09-07T00:16:44;13.87;;;6.10;;
5867;SDS011;2960;49.142;7.768;2023-09-07T00:19:11;13.43;;;6.53;;
5867;SDS011;2960;49.142;7.768;2023-09-07T00:21:38;14.10;;;6.27;;
5867;SDS011;2960;49.142;7.768;2023-09-07T00:24:05;16.70;;;6.03;;
5867;SDS011;2960;49.142;7.768;2023-09-07T00:26:33;13.70;;;5.80;;
5867;SDS011;2960;49.142;7.768;2023-09-07T00:29:01;12.70;;;6.07;;
5867;SDS011;2960;49.142;7.768;2023-09-07T00:31:29;13.10;;;5.70;;
5867;SDS011;2960;49.142;7.768;2023-09-07T00:33:56;13.93;;;6.07;;
5867;SDS011;2960;49.142;7.768;2023-09-07T00:36:23;13.80;;;5.60;;
5867;SDS011;2960;49.142;7.768;2023-09-07T00:38:50;13.10;;;6.13;;
5867;SDS011;2960;49.142;7.768;2023-09-07T00:41:17;16.20;;;5.77;;
5867;SDS011;2960;49.142;7.768;2023-09-07T00:43:44;13.20;;;5.50;;
5867;SDS011;2960;49.142;7.768;2023-09-07T00:46:12;12.20;;;5.37;;
5867;SDS011;2960;49.142;7.768;2023-09-07T00:48:39;13.70;;;5.87;;
5867;SDS011;2960;49.142;7.768;2023-09-07T00:51:07;12.93;;;5.90;;
5867;SDS011;2960;49.142;7.768;2023-09-07T00:53:34;12.80;;;6.00;;
5867;SDS011;2960;49.142;7.768;2023-09-07T00:56:03;14.13;;;5.93;;
5867;SDS011;2960;49.142;7.768;2023-09-07T00:58:32;14.07;;;5.90;;
5867;SDS011;2960;49.142;7.768;2023-09-07T01:00:59;14.33;;;5.83;;
5867;SDS011;2960;49.142;7.768;2023-09-07T01:03:28;12.70;;;5.63;;
5867;SDS011;2960;49.142;7.768;2023-09-07T01:05:56;13.47;;;5.70;;
5867;SDS011;2960;49.142;7.768;2023-09-07T01:08:32;13.33;;;5.87;;
5867;SDS011;2960;49.142;7.768;2023-09-07T01:11:12;13.03;;;5.40;;
5867;SDS011;2960;49.142;7.768;2023-09-07T01:13:41;12.57;;;5.40;;
5867;SDS011;2960;49.142;7.768;2023-09-07T01:16:09;12.80;;;5.60;;
5867;SDS011;2960;49.142;7.768;2023-09-07T01:18:38;13.07;;;5.63;;
5867;SDS011;2960;49.142;7.768;2023-09-07T01:21:06;13.63;;;5.90;;
5867;SDS011;2960;49.142;7.768;2023-09-07T01:23:35;13.27;;;5.93;;
5867;SDS011;2960;49.142;7.768;2023-09-07T01:26:06;13.53;;;6.27;;
5867;SDS011;2960;49.142;7.768;2023-09-07T01:28:35;12.40;;;5.70;;
5867;SDS011;2960;49.142;7.768;2023-09-07T01:31:03;13.30;;;5.60;;
5867;SDS011;2960;49.142;7.768;2023-09-07T01:33:30;13.03;;;5.40;;
5867;SDS011;2960;49.142;7.768;2023-09-07T01:35:58;16.33;;;5.80;;
5867;SDS011;2960;49.142;7.768;2023-09-07T01:38:26;14.00;;;5.80;;
5867;SDS011;2960;49.142;7.768;2023-09-07T01:40:54;12.77;;;5.23;;
5867;SDS011;2960;49.142;7.768;2023-09-07T01:43:22;12.63;;;5.70;;
5867;SDS011;2960;49.142;7.768;2023-09-07T01:45:49;13.00;;;5.50;;
5867;SDS011;2960;49.142;7.768;2023-09-07T01:48:16;13.60;;;5.57;;
5867;SDS011;2960;49.142;7.768;2023-09-07T01:50:43;12.67;;;5.37;;
5867;SDS011;2960;49.142;7.768;2023-09-07T01:53:10;12.90;;;5.77;;
5867;SDS011;2960;49.142;7.768;2023-09-07T01:55:37;14.13;;;5.40;;
5867;SDS011;2960;49.142;7.768;2023-09-07T01:58:06;13.17;;;5.07;;
5867;SDS011;2960;49.142;7.768;2023-09-07T02:00:36;12.93;;;5.80;;
5867;SDS011;2960;49.142;7.768;2023-09-07T02:03:04;12.80;;;5.90;;
5867;SDS011;2960;49.142;7.768;2023-09-07T02:05:31;13.00;;;5.53;;
5867;SDS011;2960;49.142;7.768;2023-09-07T02:07:58;13.03;;;5.73;;
5867;SDS011;2960;49.142;7.768;2023-09-07T02:10:25;12.80;;;5.60;;
5867;SDS011;2960;49.142;7.768;2023-09-07T02:12:52;12.13;;;5.20;;
5867;SDS011;2960;49.142;7.768;2023-09-07T02:15:23;13.73;;;6.03;;
5867;SDS011;2960;49.142;7.768;2023-09-07T02:17:50;13.43;;;5.67;;
5867;SDS011;2960;49.142;7.768;2023-09-07T02:20:17;14.90;;;5.60;;
5867;SDS011;2960;49.142;7.768;2023-09-07T02:22:45;12.67;;;5.60;;
5867;SDS011;2960;49.142;7.768;2023-09-07T02:25:12;12.53;;;5.27;;
5867;SDS011;2960;49.142;7.768;2023-09-07T02:27:39;13.47;;;5.80;;
5867;SDS011;2960;49.142;7.768;2023-09-07T02:30:07;14.10;;;5.57;;
5867;SDS011;2960;49.142;7.768;2023-09-07T02:32:36;12.87;;;5.63;;
5867;SDS011;2960;49.142;7.768;2023-09-07T02:35:04;12.47;;;5.67;;
5867;SDS011;2960;49.142;7.768;2023-09-07T02:37:33;12.80;;;5.30;;
5867;SDS011;2960;49.142;7.768;2023-09-07T02:40:02;12.60;;;5.57;;
5867;SDS011;2960;49.142;7.768;2023-09-07T02:42:31;12.70;;;5.70;;
5867;SDS011;2960;49.142;7.768;2023-09-07T02:44:58;12.70;;;5.60;;
5867;SDS011;2960;49.142;7.768;2023-09-07T02:47:25;12.50;;;5.43;;
5867;SDS011;2960;49.142;7.768;2023-09-07T02:49:54;13.73;;;6.00;;
5867;SDS011;2960;49.142;7.768;2023-09-07T02:52:21;13.40;;;5.67;;
5867;SDS011;2960;49.142;7.768;2023-09-07T02:54:48;12.43;;;5.40;;
5867;SDS011;2960;49.142;7.768;2023-09-07T02:57:15;12.70;;;5.73;;
5867;SDS011;2960;49.142;7.768;2023-09-07T02:59:43;12.17;;;4.90;;
5867;SDS011;2960;49.142;7.768;2023-09-07T03:02:10;12.40;;;5.50;;
5867;SDS011;2960;49.142;7.768;2023-09-07T03:04:37;12.87;;;5.53;;
5867;SDS011;2960;49.142;7.768;2023-09-07T03:07:06;12.57;;;5.60;;
5867;SDS011;2960;49.142;7.768;2023-09-07T03:09:34;13.67;;;5.70;;
5867;SDS011;2960;49.142;7.768;2023-09-07T03:12:01;12.87;;;5.27;;
5867;SDS011;2960;49.142;7.768;2023-09-07T03:14:31;13.17;;;5.80;;
5867;SDS011;2960;49.142;7.768;2023-09-07T03:16:58;12.70;;;5.50;;
5867;SDS011;2960;49.142;7.768;2023-09-07T03:19:25;12.47;;;5.73;;
5867;SDS011;2960;49.142;7.768;2023-09-07T03:21:52;12.60;;;5.60;;
5867;SDS011;2960;49.142;7.768;2023-09-07T03:24:21;11.90;;;5.20;;
5867;SDS011;2960;49.142;7.768;2023-09-07T03:26:48;12.50;;;4.97;;
5867;SDS011;2960;49.142;7.768;2023-09-07T03:29:16;12.83;;;6.23;;
5867;SDS011;2960;49.142;7.768;2023-09-07T03:31:43;14.17;;;5.43;;
5867;SDS011;2960;49.142;7.768;2023-09-07T03:34:10;12.60;;;5.27;;
5867;SDS011;2960;49.142;7.768;2023-09-07T03:36:38;14.10;;;5.90;;
5867;SDS011;2960;49.142;7.768;2023-09-07T03:39:05;13.20;;;5.50;;
5867;SDS011;2960;49.142;7.768;2023-09-07T03:41:34;12.00;;;5.20;;
5867;SDS011;2960;49.142;7.768;2023-09-07T03:44:01;13.90;;;5.30;;
5867;SDS011;2960;49.142;7.768;2023-09-07T03:46:29;12.37;;;5.17;;
5867;SDS011;2960;49.142;7.768;2023-09-07T03:48:56;12.83;;;5.13;;
5867;SDS011;2960;49.142;7.768;2023-09-07T03:51:23;12.53;;;4.90;;
5867;SDS011;2960;49.142;7.768;2023-09-07T03:53:50;12.40;;;5.50;;
5867;SDS011;2960;49.142;7.768;2023-09-07T03:56:17;12.13;;;5.10;;
5867;SDS011;2960;49.142;7.768;2023-09-07T03:58:45;13.10;;;5.90;;
5867;SDS011;2960;49.142;7.768;2023-09-07T04:01:12;11.90;;;5.00;;
5867;SDS011;2960;49.142;7.768;2023-09-07T04:03:40;11.80;;;5.13;;
5867;SDS011;2960;49.142;7.768;2023-09-07T04:06:07;13.43;;;5.30;;
5867;SDS011;2960;49.142;7.768;2023-09-07T04:08:34;13.20;;;5.20;;
5867;SDS011;2960;49.142;7.768;2023-09-07T04:11:03;12.73;;;5.27;;
5867;SDS011;2960;49.142;7.768;2023-09-07T04:13:30;12.33;;;4.90;;
5867;SDS011;2960;49.142;7.768;2023-09-07T04:15:59;12.80;;;5.10;;
5867;SDS011;2960;49.142;7.768;2023-09-07T04:18:26;13.63;;;5.40;;
5867;SDS011;2960;49.142;7.768;2023-09-07T04:20:53;13.20;;;5.57;;
5867;SDS011;2960;49.142;7.768;2023-09-07T04:23:30;12.60;;;5.50;;
5867;SDS011;2960;49.142;7.768;2023-09-07T04:26:03;12.40;;;4.90;;
5867;SDS011;2960;49.142;7.768;2023-09-07T04:28:32;12.00;;;5.13;;
5867;SDS011;2960;49.142;7.768;2023-09-07T04:31:01;12.57;;;5.40;;
5867;SDS011;2960;49.142;7.768;2023-09-07T04:33:29;11.97;;;4.60;;
5867;SDS011;2960;49.142;7.768;2023-09-07T04:35:57;12.83;;;5.20;;
5867;SDS011;2960;49.142;7.768;2023-09-07T04:38:33;12.10;;;4.30;;
5867;SDS011;2960;49.142;7.768;2023-09-07T04:41:05;12.17;;;4.83;;
5867;SDS011;2960;49.142;7.768;2023-09-07T04:43:33;12.67;;;5.07;;
5867;SDS011;2960;49.142;7.768;2023-09-07T04:46:01;11.63;;;5.00;;
5867;SDS011;2960;49.142;7.768;2023-09-07T04:48:29;13.67;;;5.40;;
5867;SDS011;2960;49.142;7.768;2023-09-07T04:50:59;12.40;;;5.37;;
5867;SDS011;2960;49.142;7.768;2023-09-07T04:53:27;12.37;;;5.17;;
5867;SDS011;2960;49.142;7.768;2023-09-07T04:55:56;12.90;;;5.43;;
5867;SDS011;2960;49.142;7.768;2023-09-07T04:58:24;12.20;;;5.20;;
5867;SDS011;2960;49.142;7.768;2023-09-07T05:00:51;12.50;;;5.20;;
5867;SDS011;2960;49.142;7.768;2023-09-07T05:03:20;13.53;;;5.67;;
5867;SDS011;2960;49.142;7.768;2023-09-07T05:05:50;11.70;;;4.87;;
5867;SDS011;2960;49.142;7.768;2023-09-07T05:08:19;12.03;;;4.97;;
5867;SDS011;2960;49.142;7.768;2023-09-07T05:10:48;12.80;;;5.10;;
5867;SDS011;2960;49.142;7.768;2023-09-07T05:13:15;12.87;;;5.17;;
5867;SDS011;2960;49.142;7.768;2023-09-07T05:15:46;12.17;;;5.00;;
5867;SDS011;2960;49.142;7.768;2023-09-07T05:18:14;13.40;;;5.30;;
5867;SDS011;2960;49.142;7.768;2023-09-07T05:20:44;12.50;;;5.13;;
5867;SDS011;2960;49.142;7.768;2023-09-07T05:23:13;13.30;;;5.43;;
5867;SDS011;2960;49.142;7.768;2023-09-07T05:25:43;11.90;;;5.17;;
5867;SDS011;2960;49.142;7.768;2023-09-07T05:28:12;12.73;;;5.43;;
5867;SDS011;2960;49.142;7.768;2023-09-07T05:30:40;12.27;;;5.27;;
5867;SDS011;2960;49.142;7.768;2023-09-07T05:33:08;12.43;;;5.47;;
5867;SDS011;2960;49.142;7.768;2023-09-07T05:35:36;13.07;;;5.03;;
5867;SDS011;2960;49.142;7.768;2023-09-07T05:38:04;12.10;;;4.80;;
5867;SDS011;2960;49.142;7.768;2023-09-07T05:40:33;16.70;;;5.07;;
5867;SDS011;2960;49.142;7.768;2023-09-07T05:43:00;12.20;;;4.90;;
5867;SDS011;2960;49.142;7.768;2023-09-07T05:45:29;12.10;;;5.20;;
5867;SDS011;2960;49.142;7.768;2023-09-07T05:47:57;12.07;;;5.27;;
5867;SDS011;2960;49.142;7.768;2023-09-07T05:50:24;12.50;;;4.97;;
5867;SDS011;2960;49.142;7.768;2023-09-07T05:52:51;12.37;;;5.50;;
5867;SDS011;2960;49.142;7.768;2023-09-07T05:55:19;13.17;;;5.50;;
5867;SDS011;2960;49.142;7.768;2023-09-07T05:57:48;12.40;;;5.60;;
5867;SDS011;2960;49.142;7.768;2023-09-07T06:00:15;13.40;;;5.17;;
5867;SDS011;2960;49.142;7.768;2023-09-07T06:02:43;11.70;;;4.80;;
5867;SDS011;2960;49.142;7.768;2023-09-07T06:05:12;13.17;;;5.60;;
5867;SDS011;2960;49.142;7.768;2023-09-07T06:07:39;11.40;;;4.90;;
5867;SDS011;2960;49.142;7.768;2023-09-07T06:10:06;11.73;;;5.07;;
5867;SDS011;2960;49.142;7.768;2023-09-07T06:12:35;12.67;;;5.97;;
5867;SDS011;2960;49.142;7.768;2023-09-07T06:15:03;13.93;;;5.47;;
5867;SDS011;2960;49.142;7.768;2023-09-07T06:17:31;12.90;;;5.27;;
5867;SDS011;2960;49.142;7.768;2023-09-07T06:19:58;11.67;;;5.00;;
5867;SDS011;2960;49.142;7.768;2023-09-07T06:22:25;12.53;;;5.27;;
5867;SDS011;2960;49.142;7.768;2023-09-07T06:24:52;14.73;;;5.23;;
5867;SDS011;2960;49.142;7.768;2023-09-07T06:27:19;12.17;;;5.20;;
5867;SDS011;2960;49.142;7.768;2023-09-07T06:29:48;12.03;;;5.33;;
5867;SDS011;2960;49.142;7.768;2023-09-07T06:32:16;11.73;;;5.13;;
5867;SDS011;2960;49.142;7.768;2023-09-07T06:34:43;12.70;;;5.57;;
5867;SDS011;2960;49.142;7.768;2023-09-07T06:37:10;13.37;;;5.50;;
5867;SDS011;2960;49.142;7.768;2023-09-07T06:39:38;11.90;;;5.20;;
5867;SDS011;2960;49.142;7.768;2023-09-07T06:42:07;12.57;;;5.50;;
5867;SDS011;2960;49.142;7.768;2023-09-07T06:44:35;12.73;;;5.53;;
5867;SDS011;2960;49.142;7.768;2023-09-07T06:47:04;12.10;;;5.30;;
5867;SDS011;2960;49.142;7.768;2023-09-07T06:49:31;11.70;;;4.73;;
5867;SDS011;2960;49.142;7.768;2023-09-07T06:51:58;13.13;;;5.30;;
5867;SDS011;2960;49.142;7.768;2023-09-07T06:54:27;11.70;;;5.03;;
5867;SDS011;2960;49.142;7.768;2023-09-07T06:56:54;12.60;;;5.87;;
5867;SDS011;2960;49.142;7.768;2023-09-07T06:59:22;12.30;;;5.13;;
5867;SDS011;2960;49.142;7.768;2023-09-07T07:01:49;12.30;;;5.20;;
5867;SDS011;2960;49.142;7.768;2023-09-07T07:04:17;11.87;;;5.40;;
5867;SDS011;2960;49.142;7.768;2023-09-07T07:06:44;12.47;;;5.50;;
5867;SDS011;2960;49.142;7.768;2023-09-07T07:09:14;11.90;;;5.13;;
5867;SDS011;2960;49.142;7.768;2023-09-07T07:11:41;12.50;;;5.70;;
5867;SDS011;2960;49.142;7.768;2023-09-07T07:14:09;13.10;;;5.40;;
5867;SDS011;2960;49.142;7.768;2023-09-07T07:16:37;13.40;;;6.20;;
5867;SDS011;2960;49.142;7.768;2023-09-07T07:19:04;12.37;;;5.73;;
5867;SDS011;2960;49.142;7.768;2023-09-07T07:21:32;12.43;;;5.97;;
5867;SDS011;2960;49.142;7.768;2023-09-07T07:23:59;13.70;;;5.47;;
5867;SDS011;2960;49.142;7.768;2023-09-07T07:26:26;12.00;;;5.20;;
5867;SDS011;2960;49.142;7.768;2023-09-07T07:28:53;12.10;;;5.20;;
5867;SDS011;2960;49.142;7.768;2023-09-07T07:31:23;13.07;;;5.50;;
5867;SDS011;2960;49.142;7.768;2023-09-07T07:33:50;12.10;;;5.57;;
5867;SDS011;2960;49.142;7.768;2023-09-07T07:36:19;11.70;;;4.70;;
5867;SDS011;2960;49.142;7.768;2023-09-07T07:38:48;12.40;;;5.30;;
5867;SDS011;2960;49.142;7.768;2023-09-07T07:41:15;11.67;;;4.87;;
5867;SDS011;2960;49.142;7.768;2023-09-07T07:43:42;11.70;;;4.60;;
5867;SDS011;2960;49.142;7.768;2023-09-07T07:46:10;11.90;;;5.27;;
5867;SDS011;2960;49.142;7.768;2023-09-07T07:48:40;12.97;;;5.53;;
5867;SDS011;2960;49.142;7.768;2023-09-07T07:51:08;12.13;;;5.20;;
5867;SDS011;2960;49.142;7.768;2023-09-07T07:53:35;12.90;;;5.47;;
5867;SDS011;2960;49.142;7.768;2023-09-07T07:56:03;12.40;;;5.20;;
5867;SDS011;2960;49.142;7.768;2023-09-07T07:58:30;12.10;;;4.90;;
5867;SDS011;2960;49.142;7.768;2023-09-07T08:00:58;12.23;;;5.27;;
5867;SDS011;2960;49.142;7.768;2023-09-07T08:03:26;12.40;;;5.13;;
5867;SDS011;2960;49.142;7.768;2023-09-07T08:05:53;14.23;;;5.83;;
5867;SDS011;2960;49.142;7.768;2023-09-07T08:08:20;12.10;;;4.97;;
5867;SDS011;2960;49.142;7.768;2023-09-07T08:10:47;12.47;;;5.80;;
5867;SDS011;2960;49.142;7.768;2023-09-07T08:13:16;11.90;;;5.30;;
5867;SDS011;2960;49.142;7.768;2023-09-07T08:15:44;12.40;;;5.70;;
5867;SDS011;2960;49.142;7.768;2023-09-07T08:18:13;13.00;;;5.80;;
5867;SDS011;2960;49.142;7.768;2023-09-07T08:20:40;12.43;;;6.00;;
5867;SDS011;2960;49.142;7.768;2023-09-07T08:23:07;12.60;;;6.13;;
5867;SDS011;2960;49.142;7.768;2023-09-07T08:25:36;12.30;;;5.93;;
5867;SDS011;2960;49.142;7.768;2023-09-07T08:28:04;12.33;;;5.50;;
5867;SDS011;2960;49.142;7.768;2023-09-07T08:30:33;12.10;;;5.87;;
5867;SDS011;2960;49.142;7.768;2023-09-07T08:33:02;12.37;;;5.40;;
5867;SDS011;2960;49.142;7.768;2023-09-07T08:35:31;12.47;;;6.07;;
5867;SDS011;2960;49.142;7.768;2023-09-07T08:38:00;12.20;;;5.63;;
5867;SDS011;2960;49.142;7.768;2023-09-07T08:40:30;12.57;;;6.10;;
5867;SDS011;2960;49.142;7.768;2023-09-07T08:42:58;11.80;;;5.43;;
5867;SDS011;2960;49.142;7.768;2023-09-07T08:45:34;14.90;;;6.30;;
5867;SDS011;2960;49.142;7.768;2023-09-07T08:48:08;12.50;;;6.43;;
5867;SDS011;2960;49.142;7.768;2023-09-07T08:50:38;12.63;;;6.40;;
5867;SDS011;2960;49.142;7.768;2023-09-07T08:53:07;12.93;;;6.10;;
5867;SDS011;2960;49.142;7.768;2023-09-07T08:55:35;12.90;;;6.20;;
5867;SDS011;2960;49.142;7.768;2023-09-07T08:58:02;12.33;;;5.93;;
5867;SDS011;2960;49.142;7.768;2023-09-07T09:00:31;12.00;;;5.97;;
5867;SDS011;2960;49.142;7.768;2023-09-07T09:03:03;12.20;;;6.17;;
5867;SDS011;2960;49.142;7.768;2023-09-07T09:05:30;12.60;;;6.07;;
5867;SDS011;2960;49.142;7.768;2023-09-07T09:08:00;12.60;;;6.27;;
5867;SDS011;2960;49.142;7.768;2023-09-07T09:10:29;12.50;;;6.23;;
5867;SDS011;2960;49.142;7.768;2023-09-07T09:12:56;12.50;;;6.13;;
5867;SDS011;2960;49.142;7.768;2023-09-07T09:15:24;12.80;;;6.43;;
5867;SDS011;2960;49.142;7.768;2023-09-07T09:17:54;12.73;;;6.40;;
5867;SDS011;2960;49.142;7.768;2023-09-07T09:20:22;12.20;;;6.10;;
5867;SDS011;2960;49.142;7.768;2023-09-07T09:22:52;12.70;;;6.27;;
5867;SDS011;2960;49.142;7.768;2023-09-07T09:25:20;12.30;;;5.80;;
5867;SDS011;2960;49.142;7.768;2023-09-07T09:27:48;12.23;;;6.00;;
5867;SDS011;2960;49.142;7.768;2023-09-07T09:30:15;12.97;;;6.40;;
5867;SDS011;2960;49.142;7.768;2023-09-07T09:32:42;12.70;;;6.53;;
5867;SDS011;2960;49.142;7.768;2023-09-07T09:35:11;12.80;;;6.40;;
5867;SDS011;2960;49.142;7.768;2023-09-07T09:37:44;12.17;;;6.00;;
5867;SDS011;2960;49.142;7.768;2023-09-07T09:40:13;11.90;;;5.70;;
5867;SDS011;2960;49.142;7.768;2023-09-07T09:42:42;12.10;;;6.00;;
5867;SDS011;2960;49.142;7.768;2023-09-07T09:45:10;11.90;;;5.97;;
5867;SDS011;2960;49.142;7.768;2023-09-07T09:47:39;11.70;;;5.87;;
5867;SDS011;2960;49.142;7.768;2023-09-07T09:50:12;13.50;;;5.60;;
5867;SDS011;2960;49.142;7.768;2023-09-07T09:52:39;12.50;;;6.20;;
5867;SDS011;2960;49.142;7.768;2023-09-07T09:55:07;12.80;;;6.07;;
5867;SDS011;2960;49.142;7.768;2023-09-07T09:57:38;12.27;;;6.10;;
5867;SDS011;2960;49.142;7.768;2023-09-07T10:00:05;12.43;;;6.30;;
5867;SDS011;2960;49.142;7.768;2023-09-07T10:02:46;12.70;;;6.40;;
5867;SDS011;2960;49.142;7.768;2023-09-07T10:05:19;12.97;;;6.47;;
5867;SDS011;2960;49.142;7.768;2023-09-07T10:07:48;12.30;;;6.23;;
5867;SDS011;2960;49.142;7.768;2023-09-07T10:10:15;11.90;;;6.10;;
5867;SDS011;2960;49.142;7.768;2023-09-07T10:12:50;12.40;;;6.57;;
5867;SDS011;2960;49.142;7.768;2023-09-07T10:15:19;13.13;;;6.20;;
5867;SDS011;2960;49.142;7.768;2023-09-07T10:17:48;14.70;;;6.70;;
5867;SDS011;2960;49.142;7.768;2023-09-07T10:20:19;13.10;;;6.07;;
5867;SDS011;2960;49.142;7.768;2023-09-07T10:22:49;13.43;;;6.70;;
5867;SDS011;2960;49.142;7.768;2023-09-07T10:25:20;13.30;;;6.40;;
5867;SDS011;2960;49.142;7.768;2023-09-07T10:27:48;12.30;;;5.97;;
5867;SDS011;2960;49.142;7.768;2023-09-07T10:30:15;12.97;;;6.63;;
5867;SDS011;2960;49.142;7.768;2023-09-07T10:32:48;12.27;;;6.03;;
5867;SDS011;2960;49.142;7.768;2023-09-07T10:35:16;12.40;;;6.30;;
5867;SDS011;2960;49.142;7.768;2023-09-07T10:37:47;12.90;;;6.30;;
5867;SDS011;2960;49.142;7.768;2023-09-07T10:40:24;14.07;;;6.10;;
5867;SDS011;2960;49.142;7.768;2023-09-07T10:43:00;13.30;;;6.50;;
5867;SDS011;2960;49.142;7.768;2023-09-07T10:45:29;11.90;;;5.87;;
5867;SDS011;2960;49.142;7.768;2023-09-07T10:47:56;13.50;;;6.43;;
5867;SDS011;2960;49.142;7.768;2023-09-07T10:50:25;13.17;;;6.70;;
5867;SDS011;2960;49.142;7.768;2023-09-07T10:52:53;13.03;;;6.67;;
5867;SDS011;2960;49.142;7.768;2023-09-07T10:55:21;13.50;;;6.30;;
5867;SDS011;2960;49.142;7.768;2023-09-07T10:57:48;13.33;;;6.60;;
5867;SDS011;2960;49.142;7.768;2023-09-07T11:00:16;13.60;;;7.00;;
5867;SDS011;2960;49.142;7.768;2023-09-07T11:02:43;13.30;;;6.47;;
5867;SDS011;2960;49.142;7.768;2023-09-07T11:05:10;13.10;;;6.37;;
5867;SDS011;2960;49.142;7.768;2023-09-07T11:07:39;12.50;;;6.37;;
5867;SDS011;2960;49.142;7.768;2023-09-07T11:10:09;12.43;;;5.73;;
5867;SDS011;2960;49.142;7.768;2023-09-07T11:12:37;12.00;;;6.13;;
5867;SDS011;2960;49.142;7.768;2023-09-07T11:15:05;12.33;;;5.87;;
5867;SDS011;2960;49.142;7.768;2023-09-07T11:17:36;12.90;;;5.90;;
5867;SDS011;2960;49.142;7.768;2023-09-07T11:20:06;13.70;;;5.70;;
5867;SDS011;2960;49.142;7.768;2023-09-07T11:22:35;11.90;;;5.63;;
5867;SDS011;2960;49.142;7.768;2023-09-07T11:25:05;12.40;;;6.00;;
5867;SDS011;2960;49.142;7.768;2023-09-07T11:27:33;14.43;;;6.40;;
5867;SDS011;2960;49.142;7.768;2023-09-07T11:30:00;12.10;;;5.77;;
5867;SDS011;2960;49.142;7.768;2023-09-07T11:32:33;12.30;;;5.63;;
5867;SDS011;2960;49.142;7.768;2023-09-07T11:35:00;12.20;;;6.00;;
5867;SDS011;2960;49.142;7.768;2023-09-07T11:37:32;12.47;;;6.00;;
5867;SDS011;2960;49.142;7.768;2023-09-07T11:40:00;12.70;;;5.90;;
5867;SDS011;2960;49.142;7.768;2023-09-07T11:42:30;12.87;;;5.90;;
5867;SDS011;2960;49.142;7.768;2023-09-07T11:44:58;13.70;;;6.90;;
5867;SDS011;2960;49.142;7.768;2023-09-07T11:47:25;12.87;;;6.27;;
5867;SDS011;2960;49.142;7.768;2023-09-07T11:49:52;13.00;;;6.07;;
5867;SDS011;2960;49.142;7.768;2023-09-07T11:52:19;12.80;;;5.90;;
5867;SDS011;2960;49.142;7.768;2023-09-07T11:54:46;13.33;;;5.90;;
5867;SDS011;2960;49.142;7.768;2023-09-07T11:57:13;12.20;;;5.70;;
5867;SDS011;2960;49.142;7.768;2023-09-07T11:59:42;12.40;;;5.97;;
5867;SDS011;2960;49.142;7.768;2023-09-07T12:02:09;11.77;;;5.70;;
5867;SDS011;2960;49.142;7.768;2023-09-07T12:04:39;12.33;;;5.80;;
5867;SDS011;2960;49.142;7.768;2023-09-07T12:07:06;12.63;;;6.20;;
5867;SDS011;2960;49.142;7.768;2023-09-07T12:09:34;11.80;;;5.57;;
5867;SDS011;2960;49.142;7.768;2023-09-07T12:12:01;12.03;;;6.03;;
5867;SDS011;2960;49.142;7.768;2023-09-07T12:14:29;12.30;;;5.60;;
5867;SDS011;2960;49.142;7.768;2023-09-07T12:16:58;12.50;;;5.93;;
5867;SDS011;2960;49.142;7.768;2023-09-07T12:19:26;13.20;;;5.83;;
5867;SDS011;2960;49.142;7.768;2023-09-07T12:21:53;11.90;;;5.30;;
5867;SDS011;2960;49.142;7.768;2023-09-07T12:24:20;13.10;;;6.23;;
5867;SDS011;2960;49.142;7.768;2023-09-07T12:26:47;12.60;;;5.97;;
5867;SDS011;2960;49.142;7.768;2023-09-07T12:29:14;12.23;;;6.03;;
5867;SDS011;2960;49.142;7.768;2023-09-07T12:31:42;13.50;;;5.80;;
5867;SDS011;2960;49.142;7.768;2023-09-07T12:34:11;12.60;;;6.13;;
5867;SDS011;2960;49.142;7.768;2023-09-07T12:36:39;12.73;;;6.23;;
5867;SDS011;2960;49.142;7.768;2023-09-07T12:39:08;12.60;;;6.17;;
5867;SDS011;2960;49.142;7.768;2023-09-07T12:41:38;12.50;;;6.20;;
5867;SDS011;2960;49.142;7.768;2023-09-07T12:44:05;12.53;;;6.03;;
5867;SDS011;2960;49.142;7.768;2023-09-07T12:46:33;12.60;;;6.00;;
5867;SDS011;2960;49.142;7.768;2023-09-07T12:49:03;12.40;;;5.67;;
5867;SDS011;2960;49.142;7.768;2023-09-07T12:51:32;11.67;;;5.53;;
5867;SDS011;2960;49.142;7.768;2023-09-07T12:53:59;12.53;;;6.00;;
5867;SDS011;2960;49.142;7.768;2023-09-07T12:56:26;11.27;;;5.40;;
5867;SDS011;2960;49.142;7.768;2023-09-07T12:58:53;11.80;;;5.50;;
5867;SDS011;2960;49.142;7.768;2023-09-07T13:01:22;12.00;;;5.53;;
5867;SDS011;2960;49.142;7.768;2023-09-07T13:03:49;12.80;;;6.47;;
5867;SDS011;2960;49.142;7.768;2023-09-07T13:06:16;11.40;;;5.47;;
5867;SDS011;2960;49.142;7.768;2023-09-07T13:08:45;14.57;;;5.80;;
5867;SDS011;2960;49.142;7.768;2023-09-07T13:11:14;11.87;;;5.77;;
5867;SDS011;2960;49.142;7.768;2023-09-07T13:13:41;11.90;;;5.83;;
5867;SDS011;2960;49.142;7.768;2023-09-07T13:16:09;12.00;;;5.70;;
5867;SDS011;2960;49.142;7.768;2023-09-07T13:18:36;12.00;;;5.80;;
5867;SDS011;2960;49.142;7.768;2023-09-07T13:21:07;11.80;;;5.47;;
5867;SDS011;2960;49.142;7.768;2023-09-07T13:23:34;12.47;;;5.97;;
5867;SDS011;2960;49.142;7.768;2023-09-07T13:26:02;11.87;;;5.60;;
5867;SDS011;2960;49.142;7.768;2023-09-07T13:28:31;12.40;;;5.30;;
5867;SDS011;2960;49.142;7.768;2023-09-07T13:30:59;11.43;;;5.50;;
5867;SDS011;2960;49.142;7.768;2023-09-07T13:33:29;13.20;;;5.90;;
5867;SDS011;2960;49.142;7.768;2023-09-07T13:35:56;11.67;;;5.30;;
5867;SDS011;2960;49.142;7.768;2023-09-07T13:38:23;11.90;;;5.53;;
5867;SDS011;2960;49.142;7.768;2023-09-07T13:40:50;11.67;;;5.47;;
5867;SDS011;2960;49.142;7.768;2023-09-07T13:43:19;11.60;;;5.07;;
5867;SDS011;2960;49.142;7.768;2023-09-07T13:45:46;11.93;;;5.20;;
5867;SDS011;2960;49.142;7.768;2023-09-07T13:48:13;11.70;;;5.70;;
5867;SDS011;2960;49.142;7.768;2023-09-07T13:50:40;11.40;;;5.33;;
5867;SDS011;2960;49.142;7.768;2023-09-07T13:53:08;12.63;;;5.73;;
5867;SDS011;2960;49.142;7.768;2023-09-07T13:55:35;11.60;;;5.17;;
5867;SDS011;2960;49.142;7.768;2023-09-07T13:58:04;12.43;;;5.70;;
5867;SDS011;2960;49.142;7.768;2023-09-07T14:00:33;11.73;;;5.10;;
5867;SDS011;2960;49.142;7.768;2023-09-07T14:03:00;11.40;;;5.00;;
5867;SDS011;2960;49.142;7.768;2023-09-07T14:05:28;11.37;;;5.30;;
5867;SDS011;2960;49.142;7.768;2023-09-07T14:07:55;12.10;;;5.73;;
5867;SDS011;2960;49.142;7.768;2023-09-07T14:10:23;14.13;;;5.17;;
5867;SDS011;2960;49.142;7.768;2023-09-07T14:12:50;11.60;;;5.50;;
5867;SDS011;2960;49.142;7.768;2023-09-07T14:15:17;12.03;;;5.60;;
5867;SDS011;2960;49.142;7.768;2023-09-07T14:17:45;11.83;;;5.57;;
5867;SDS011;2960;49.142;7.768;2023-09-07T14:20:12;11.90;;;5.60;;
5867;SDS011;2960;49.142;7.768;2023-09-07T14:22:39;11.70;;;5.67;;
5867;SDS011;2960;49.142;7.768;2023-09-07T14:25:07;13.30;;;5.70;;
5867;SDS011;2960;49.142;7.768;2023-09-07T14:27:34;12.73;;;5.80;;
5867;SDS011;2960;49.142;7.768;2023-09-07T14:30:01;11.60;;;5.40;;
5867;SDS011;2960;49.142;7.768;2023-09-07T14:32:29;11.40;;;4.87;;
5867;SDS011;2960;49.142;7.768;2023-09-07T14:34:58;11.30;;;4.90;;
5867;SDS011;2960;49.142;7.768;2023-09-07T14:37:25;11.97;;;5.63;;
5867;SDS011;2960;49.142;7.768;2023-09-07T14:39:52;12.70;;;6.10;;
5867;SDS011;2960;49.142;7.768;2023-09-07T14:42:22;11.70;;;5.57;;
5867;SDS011;2960;49.142;7.768;2023-09-07T14:44:50;12.20;;;5.33;;
5867;SDS011;2960;49.142;7.768;2023-09-07T14:47:18;12.00;;;5.63;;
5867;SDS011;2960;49.142;7.768;2023-09-07T14:49:50;11.70;;;5.40;;
5867;SDS011;2960;49.142;7.768;2023-09-07T14:52:19;13.30;;;5.80;;
5867;SDS011;2960;49.142;7.768;2023-09-07T14:54:48;11.67;;;5.60;;
5867;SDS011;2960;49.142;7.768;2023-09-07T14:57:15;11.60;;;5.53;;
5867;SDS011;2960;49.142;7.768;2023-09-07T14:59:42;12.87;;;5.70;;
5867;SDS011;2960;49.142;7.768;2023-09-07T15:02:09;12.17;;;5.70;;
5867;SDS011;2960;49.142;7.768;2023-09-07T15:04:36;12.37;;;5.37;;
5867;SDS011;2960;49.142;7.768;2023-09-07T15:07:03;12.23;;;5.80;;